createdAt,value
2022-07-30T00:00:31.614Z,4.05
2022-07-30T00:03:00.119Z,4.07
2022-07-30T00:05:29.873Z,4.53
2022-07-30T00:07:58.510Z,3.60
2022-07-30T00:10:27.799Z,4.00
2022-07-30T00:12:57.298Z,4.03
2022-07-30T00:15:25.758Z,3.80
2022-07-30T00:17:54.608Z,3.97
2022-07-30T00:20:23.738Z,3.50
2022-07-30T00:22:58.094Z,4.75
2022-07-30T00:25:26.634Z,4.20
2022-07-30T00:27:55.196Z,4.53
2022-07-30T00:30:23.949Z,4.13
2022-07-30T00:32:52.644Z,4.75
2022-07-30T00:35:21.285Z,4.30
2022-07-30T00:37:49.924Z,4.10
2022-07-30T00:40:19.835Z,4.32
2022-07-30T00:42:50.663Z,4.15
2022-07-30T00:45:19.323Z,4.25
2022-07-30T00:47:47.955Z,4.55
2022-07-30T00:50:16.596Z,5.05
2022-07-30T00:52:45.122Z,4.85
2022-07-30T00:55:14.871Z,4.70
2022-07-30T00:57:44.881Z,6.22
2022-07-30T01:00:16.035Z,4.63
2022-07-30T01:02:44.667Z,4.43
2022-07-30T01:05:13.290Z,4.72
2022-07-30T01:07:41.783Z,4.80
2022-07-30T01:10:12.419Z,5.03
2022-07-30T01:12:41.014Z,6.07
2022-07-30T01:15:12.049Z,4.63
2022-07-30T01:17:40.718Z,4.43
2022-07-30T01:20:12.398Z,4.70
2022-07-30T01:22:58.998Z,4.80
2022-07-30T01:25:47.328Z,4.68
2022-07-30T01:28:18.419Z,4.75
2022-07-30T01:30:47.340Z,4.70
2022-07-30T01:33:18.921Z,5.18
2022-07-30T01:35:48.616Z,4.70
2022-07-30T01:38:17.630Z,4.93
2022-07-30T01:40:47.668Z,4.60
2022-07-30T01:43:16.743Z,6.18
2022-07-30T01:45:45.389Z,4.72
2022-07-30T01:48:15.041Z,4.47
2022-07-30T01:50:45.792Z,5.03
2022-07-30T01:53:16.913Z,4.82
2022-07-30T01:55:46.955Z,4.57
2022-07-30T01:58:15.498Z,4.82
2022-07-30T02:00:44.823Z,5.10
2022-07-30T02:03:13.566Z,5.70
2022-07-30T02:05:42.766Z,6.55
2022-07-30T02:08:15.274Z,4.97
2022-07-30T02:10:46.750Z,4.80
2022-07-30T02:13:18.917Z,6.68
2022-07-30T02:15:51.178Z,5.22
2022-07-30T02:18:23.755Z,5.03
2022-07-30T02:20:57.380Z,5.10
2022-07-30T02:23:25.921Z,5.30
2022-07-30T02:25:54.437Z,4.55
2022-07-30T02:28:24.309Z,7.47
2022-07-30T02:30:54.651Z,5.97
2022-07-30T02:33:24.868Z,5.95
2022-07-30T02:35:54.255Z,5.50
2022-07-30T02:38:25.431Z,6.43
2022-07-30T02:40:53.963Z,4.88
2022-07-30T02:43:25.241Z,5.40
2022-07-30T02:45:54.099Z,5.40
2022-07-30T02:48:34.512Z,5.15
2022-07-30T02:51:04.931Z,5.18
2022-07-30T02:53:33.408Z,4.70
2022-07-30T02:56:01.857Z,5.45
2022-07-30T02:58:31.793Z,4.93
2022-07-30T03:01:00.323Z,4.43
2022-07-30T03:03:32.039Z,5.03
2022-07-30T03:06:00.727Z,4.80
2022-07-30T03:08:29.243Z,7.70
2022-07-30T03:10:57.824Z,5.47
2022-07-30T03:13:26.422Z,4.82
2022-07-30T03:15:56.709Z,5.00
2022-07-30T03:18:25.247Z,4.85
2022-07-30T03:20:56.314Z,5.10
2022-07-30T03:23:24.825Z,4.90
2022-07-30T03:25:56.055Z,4.80
2022-07-30T03:28:24.901Z,4.88
2022-07-30T03:30:53.676Z,4.72
2022-07-30T03:33:23.661Z,5.43
2022-07-30T03:36:08.115Z,5.55
2022-07-30T03:38:38.081Z,6.63
2022-07-30T03:41:06.909Z,5.50
2022-07-30T03:43:35.518Z,5.25
2022-07-30T03:46:04.607Z,5.38
2022-07-30T03:48:34.933Z,5.47
2022-07-30T03:51:04.316Z,5.05
2022-07-30T03:53:33.026Z,5.35
2022-07-30T03:56:01.614Z,5.22
2022-07-30T03:58:30.561Z,5.55
2022-07-30T04:01:04.881Z,5.80
2022-07-30T04:03:35.120Z,5.45
2022-07-30T04:06:03.588Z,5.03
2022-07-30T04:08:32.062Z,5.25
2022-07-30T04:11:00.765Z,4.85
2022-07-30T04:13:29.216Z,4.68
2022-07-30T04:16:38.391Z,4.85
2022-07-30T04:18:54.776Z,4.63
2022-07-30T04:21:24.286Z,4.85
2022-07-30T04:24:03.872Z,5.35
2022-07-30T04:26:36.536Z,4.60
2022-07-30T04:29:07.220Z,5.25
2022-07-30T04:31:40.217Z,5.28
2022-07-30T04:34:14.341Z,5.22
2022-07-30T04:36:43.327Z,5.35
2022-07-30T04:39:12.045Z,4.70
2022-07-30T04:41:48.362Z,4.72
2022-07-30T04:44:20.032Z,4.97
2022-07-30T04:46:48.667Z,4.85
2022-07-30T04:49:19.146Z,5.20
2022-07-30T04:51:47.945Z,5.20
2022-07-30T04:54:16.445Z,4.80
2022-07-30T04:56:53.144Z,4.95
2022-07-30T04:59:25.433Z,4.80
2022-07-30T05:01:54.010Z,5.15
2022-07-30T05:04:25.097Z,5.22
2022-07-30T05:06:53.796Z,4.97
2022-07-30T05:09:22.250Z,5.00
2022-07-30T05:11:54.216Z,5.13
2022-07-30T05:14:23.102Z,5.88
2022-07-30T05:16:51.584Z,5.43
2022-07-30T05:19:20.179Z,4.68
2022-07-30T05:21:50.089Z,5.20
2022-07-30T05:24:18.559Z,5.07
2022-07-30T05:26:47.052Z,4.32
2022-07-30T05:29:19.663Z,5.20
2022-07-30T05:31:49.537Z,6.22
2022-07-30T05:34:18.230Z,4.90
2022-07-30T05:36:46.682Z,4.80
2022-07-30T05:39:17.450Z,4.80
2022-07-30T05:41:45.892Z,4.80
2022-07-30T05:44:14.446Z,5.13
2022-07-30T05:46:42.984Z,5.43
2022-07-30T05:49:11.576Z,4.70
2022-07-30T05:51:40.375Z,4.90
2022-07-30T05:54:09.746Z,4.60
2022-07-30T05:56:41.036Z,5.20
2022-07-30T05:59:09.645Z,5.30
2022-07-30T06:01:38.270Z,5.13
2022-07-30T06:04:06.914Z,5.10
2022-07-30T06:06:35.348Z,8.98
2022-07-30T06:09:04.043Z,5.43
2022-07-30T06:11:32.527Z,4.57
2022-07-30T06:14:02.450Z,5.88
2022-07-30T06:16:31.052Z,5.30
2022-07-30T06:18:59.506Z,5.05
2022-07-30T06:21:27.968Z,5.82
2022-07-30T06:24:16.440Z,5.00
2022-07-30T06:26:44.928Z,5.15
2022-07-30T06:29:14.860Z,4.70
2022-07-30T06:31:43.452Z,4.82
2022-07-30T06:34:11.981Z,5.05
2022-07-30T06:36:40.615Z,6.70
2022-07-30T06:39:09.220Z,5.10
2022-07-30T06:41:37.753Z,5.25
2022-07-30T06:44:06.441Z,5.75
2022-07-30T06:46:36.937Z,5.38
2022-07-30T06:49:05.810Z,6.15
2022-07-30T06:51:34.703Z,5.70
2022-07-30T06:54:03.745Z,5.20
2022-07-30T06:56:32.322Z,5.70
2022-07-30T06:59:00.911Z,5.43
2022-07-30T07:01:29.355Z,5.75
2022-07-30T07:03:59.350Z,4.90
2022-07-30T07:06:27.869Z,5.40
2022-07-30T07:08:56.343Z,5.07
2022-07-30T07:11:25.550Z,5.75
2022-07-30T07:13:54.038Z,8.02
2022-07-30T07:16:25.474Z,5.97
2022-07-30T07:18:53.956Z,5.72
2022-07-30T07:21:23.719Z,5.13
2022-07-30T07:23:52.160Z,4.97
2022-07-30T07:26:20.590Z,5.38
2022-07-30T07:28:49.971Z,5.88
2022-07-30T07:32:07.155Z,5.30
2022-07-30T07:34:07.020Z,6.20
2022-07-30T07:36:36.853Z,5.25
2022-07-30T07:39:09.735Z,5.65
2022-07-30T07:41:48.792Z,5.45
2022-07-30T07:44:17.963Z,6.03
2022-07-30T07:46:46.443Z,5.85
2022-07-30T07:49:15.080Z,6.03
2022-07-30T07:51:48.364Z,6.40
2022-07-30T07:54:24.114Z,6.35
2022-07-30T07:56:53.438Z,5.60
2022-07-30T07:59:21.938Z,5.30
2022-07-30T08:01:51.412Z,6.15
2022-07-30T08:04:19.949Z,6.07
2022-07-30T08:06:49.926Z,6.47
2022-07-30T08:09:18.342Z,6.00
2022-07-30T08:11:48.022Z,7.28
2022-07-30T08:14:16.416Z,5.35
2022-07-30T08:16:44.886Z,5.90
2022-07-30T08:19:13.362Z,5.65
2022-07-30T08:21:41.816Z,5.72
2022-07-30T08:24:11.620Z,5.80
2022-07-30T08:26:40.170Z,5.60
2022-07-30T08:29:08.660Z,7.03
2022-07-30T08:31:37.129Z,7.05
2022-07-30T08:34:05.789Z,5.88
2022-07-30T08:36:34.234Z,7.15
2022-07-30T08:39:02.715Z,10.20
2022-07-30T08:41:32.611Z,17.73
2022-07-30T08:46:32.964Z,11.27
2022-07-30T08:49:09.226Z,14.13
2022-07-30T08:51:40.239Z,7.15
2022-07-30T08:54:08.764Z,6.13
2022-07-30T08:56:38.762Z,15.20
2022-07-30T08:59:07.293Z,9.70
2022-07-30T09:01:35.867Z,6.18
2022-07-30T09:06:34.193Z,5.55
2022-07-30T09:09:05.493Z,9.13
2022-07-30T09:11:35.904Z,6.00
2022-07-30T09:14:11.070Z,7.28
2022-07-30T09:16:39.926Z,5.78
2022-07-30T09:19:16.527Z,7.30
2022-07-30T09:21:56.363Z,14.00
2022-07-30T09:24:24.935Z,6.22
2022-07-30T09:26:57.156Z,6.30
2022-07-30T09:29:28.145Z,9.13
2022-07-30T09:31:58.124Z,7.72
2022-07-30T09:34:31.990Z,5.90
2022-07-30T09:37:02.260Z,6.18
2022-07-30T09:39:34.900Z,6.45
2022-07-30T09:42:04.425Z,5.90
2022-07-30T09:44:34.426Z,5.63
2022-07-30T09:47:03.203Z,5.68
2022-07-30T09:49:32.956Z,26.23
2022-07-30T09:52:01.480Z,11.38
2022-07-30T09:54:50.966Z,7.82
2022-07-30T09:57:25.972Z,6.82
2022-07-30T09:59:59.853Z,7.15
2022-07-30T10:02:31.924Z,6.65
2022-07-30T10:05:13.848Z,6.55
2022-07-30T10:07:51.486Z,6.50
2022-07-30T10:10:25.267Z,6.90
2022-07-30T10:12:58.205Z,6.53
2022-07-30T10:15:32.526Z,6.40
2022-07-30T10:18:01.699Z,6.30
2022-07-30T10:20:30.165Z,7.03
2022-07-30T10:23:07.818Z,6.80
2022-07-30T10:25:49.656Z,6.50
2022-07-30T10:28:24.481Z,8.45
2022-07-30T10:30:55.891Z,8.77
2022-07-30T10:33:36.688Z,10.73
2022-07-30T10:36:11.734Z,13.82
2022-07-30T10:38:41.635Z,17.42
2022-07-30T10:41:42.225Z,25.73
2022-07-30T10:44:23.538Z,19.48
2022-07-30T10:47:01.302Z,15.25
2022-07-30T10:49:41.401Z,10.45
2022-07-30T10:52:12.389Z,11.73
2022-07-30T10:54:43.165Z,9.73
2022-07-30T10:57:32.456Z,8.98
2022-07-30T11:00:15.240Z,11.63
2022-07-30T11:03:41.558Z,9.35
2022-07-30T11:06:26.963Z,9.00
2022-07-30T11:08:57.145Z,10.93
2022-07-30T11:12:15.750Z,10.02
2022-07-30T11:15:17.413Z,10.90
2022-07-30T11:18:12.492Z,9.68
2022-07-30T11:20:48.863Z,9.88
2022-07-30T11:23:40.635Z,10.02
2022-07-30T11:26:14.405Z,9.75
2022-07-30T11:28:44.815Z,9.20
2022-07-30T11:31:36.918Z,21.38
2022-07-30T11:34:30.769Z,14.00
2022-07-30T11:37:31.904Z,13.07
2022-07-30T11:40:14.578Z,12.32
2022-07-30T11:42:43.806Z,12.32
2022-07-30T11:45:29.883Z,12.88
2022-07-30T11:48:01.202Z,13.90
2022-07-30T11:50:34.041Z,11.20
2022-07-30T11:53:06.810Z,10.80
2022-07-30T11:55:37.477Z,11.10
2022-07-30T11:58:07.925Z,14.98
2022-07-30T12:00:39.144Z,11.85
2022-07-30T12:03:12.763Z,11.07
2022-07-30T12:05:41.409Z,14.32
2022-07-30T12:08:35.406Z,15.70
2022-07-30T12:11:01.754Z,11.23
2022-07-30T12:13:42.847Z,11.60
2022-07-30T12:16:16.052Z,11.48
2022-07-30T12:18:45.185Z,11.85
2022-07-30T12:21:16.327Z,13.55
2022-07-30T12:23:55.724Z,12.45
2022-07-30T12:26:26.750Z,11.45
2022-07-30T12:28:56.390Z,12.07
2022-07-30T12:31:24.909Z,11.95
2022-07-30T12:33:53.491Z,12.48
2022-07-30T12:36:30.907Z,12.80
2022-07-30T12:39:01.127Z,13.50
2022-07-30T12:41:45.529Z,13.77
2022-07-30T12:44:39.003Z,13.25
2022-07-30T12:47:20.254Z,14.32
2022-07-30T12:49:50.085Z,12.95
2022-07-30T12:52:28.660Z,15.00
2022-07-30T12:55:09.935Z,14.88
2022-07-30T12:57:58.297Z,15.52
2022-07-30T13:00:28.192Z,15.80
2022-07-30T13:02:56.783Z,15.10
2022-07-30T13:05:48.510Z,15.77
2022-07-30T13:08:16.978Z,15.10
2022-07-30T13:11:00.826Z,15.93
2022-07-30T13:13:29.357Z,15.70
2022-07-30T13:16:00.888Z,15.38
2022-07-30T13:18:30.005Z,14.70
2022-07-30T13:20:58.708Z,17.17
2022-07-30T13:23:27.601Z,15.63
2022-07-30T13:25:56.050Z,16.30
2022-07-30T13:28:26.036Z,16.85
2022-07-30T13:30:54.479Z,17.30
2022-07-30T13:33:22.893Z,15.98
2022-07-30T13:35:51.313Z,16.83
2022-07-30T13:38:19.729Z,15.57
2022-07-30T13:40:48.653Z,15.63
2022-07-30T13:43:17.247Z,14.05
2022-07-30T13:45:47.158Z,14.43
2022-07-30T13:48:15.630Z,14.80
2022-07-30T13:50:44.791Z,14.35
2022-07-30T13:53:13.257Z,14.43
2022-07-30T13:55:42.603Z,14.27
2022-07-30T13:58:11.158Z,14.70
2022-07-30T14:00:40.456Z,14.80
2022-07-30T14:03:11.176Z,13.80
2022-07-30T14:05:42.257Z,14.43
2022-07-30T14:08:11.944Z,14.25
2022-07-30T14:10:40.822Z,14.90
2022-07-30T14:13:11.781Z,14.70
2022-07-30T14:15:49.893Z,15.23
2022-07-30T14:18:19.716Z,15.15
2022-07-30T14:20:49.463Z,14.85
2022-07-30T14:23:18.088Z,15.60
2022-07-30T14:25:46.733Z,16.08
2022-07-30T14:28:15.243Z,15.95
2022-07-30T14:30:43.824Z,16.85
2022-07-30T14:33:12.324Z,17.20
2022-07-30T14:35:42.366Z,16.38
2022-07-30T14:38:10.837Z,15.93
2022-07-30T14:40:39.284Z,15.88
2022-07-30T14:43:07.704Z,16.00
2022-07-30T14:45:37.577Z,15.25
2022-07-30T14:48:06.774Z,15.75
2022-07-30T14:50:46.698Z,14.40
2022-07-30T14:53:25.738Z,13.43
2022-07-30T14:55:54.192Z,13.93
2022-07-30T14:58:22.656Z,13.90
2022-07-30T15:00:51.646Z,13.57
2022-07-30T15:03:20.212Z,13.27
2022-07-30T15:05:52.427Z,13.57
2022-07-30T15:08:21.783Z,13.23
2022-07-30T15:10:51.578Z,13.35
2022-07-30T15:13:19.983Z,13.07
2022-07-30T15:15:50.454Z,12.75
2022-07-30T15:18:18.891Z,13.57
2022-07-30T15:20:47.366Z,12.68
2022-07-30T15:23:15.890Z,13.25
2022-07-30T15:25:45.656Z,12.60
2022-07-30T15:28:15.561Z,12.73
2022-07-30T15:30:44.574Z,12.10
2022-07-30T15:33:13.066Z,12.50
2022-07-30T15:35:41.514Z,12.63
2022-07-30T15:38:10.045Z,11.73
2022-07-30T15:40:38.476Z,13.05
2022-07-30T15:43:10.083Z,13.40
2022-07-30T15:45:50.059Z,14.55
2022-07-30T15:48:27.368Z,19.38
2022-07-30T15:51:01.651Z,20.17
2022-07-30T15:53:31.262Z,27.85
2022-07-30T15:55:59.707Z,21.85
2022-07-30T15:58:28.271Z,22.13
2022-07-30T16:00:58.182Z,20.92
2022-07-30T16:03:26.796Z,22.58
2022-07-30T16:05:55.254Z,23.83
2022-07-30T16:08:23.997Z,24.25
2022-07-30T16:10:53.021Z,24.92
2022-07-30T16:13:21.486Z,25.90
2022-07-30T16:15:50.002Z,31.50
2022-07-30T16:18:19.753Z,32.55
2022-07-30T16:20:48.379Z,27.92
2022-07-30T16:23:21.126Z,26.77
2022-07-30T16:25:50.295Z,29.23
2022-07-30T16:28:26.520Z,28.67
2022-07-30T16:30:55.243Z,26.52
2022-07-30T16:33:25.266Z,25.80
2022-07-30T16:35:53.873Z,23.75
2022-07-30T16:38:23.377Z,22.17
2022-07-30T16:40:52.037Z,21.52
2022-07-30T16:43:20.698Z,19.98
2022-07-30T16:45:49.241Z,19.27
2022-07-30T16:48:17.805Z,19.48
2022-07-30T16:50:47.668Z,18.50
2022-07-30T16:53:16.367Z,21.98
2022-07-30T16:55:46.588Z,21.98
2022-07-30T16:58:15.086Z,28.70
2022-07-30T17:00:43.828Z,23.25
2022-07-30T17:03:20.159Z,27.42
2022-07-30T17:05:50.314Z,25.90
2022-07-30T17:08:19.177Z,40.03
2022-07-30T17:10:53.755Z,19.95
2022-07-30T17:13:22.444Z,33.25
2022-07-30T17:15:51.104Z,21.58
2022-07-30T17:18:21.797Z,27.60
2022-07-30T17:20:51.695Z,14.30
2022-07-30T17:23:20.149Z,14.43
2022-07-30T17:25:49.165Z,12.30
2022-07-30T17:28:19.574Z,11.07
2022-07-30T17:30:54.480Z,9.13
2022-07-30T17:33:22.996Z,9.50
2022-07-30T17:35:52.924Z,9.13
2022-07-30T17:38:21.479Z,9.07
2022-07-30T17:40:50.021Z,8.38
2022-07-30T17:43:18.674Z,7.38
2022-07-30T17:45:47.208Z,7.30
2022-07-30T17:48:15.849Z,6.22
2022-07-30T17:50:44.321Z,5.15
2022-07-30T17:53:16.057Z,5.38
2022-07-30T17:55:57.424Z,4.70
2022-07-30T17:58:27.017Z,5.20
2022-07-30T18:00:55.916Z,4.75
2022-07-30T18:03:24.446Z,4.40
2022-07-30T18:05:53.421Z,4.72
2022-07-30T18:08:23.220Z,4.10
2022-07-30T18:10:51.905Z,3.95
2022-07-30T18:13:25.876Z,5.10
2022-07-30T18:15:55.752Z,3.92
2022-07-30T18:18:24.534Z,4.10
2022-07-30T18:20:53.019Z,3.65
2022-07-30T18:23:22.879Z,4.00
2022-07-30T18:25:54.341Z,6.60
2022-07-30T18:28:23.116Z,6.82
2022-07-30T18:30:51.649Z,3.53
2022-07-30T18:33:20.098Z,3.75
2022-07-30T18:35:49.254Z,5.53
2022-07-30T18:38:17.768Z,4.70
2022-07-30T18:40:57.719Z,8.55
2022-07-30T18:43:26.848Z,6.95
2022-07-30T18:45:55.411Z,6.13
2022-07-30T18:48:23.862Z,3.78
2022-07-30T18:50:52.962Z,3.67
2022-07-30T18:53:21.471Z,12.52
2022-07-30T18:55:51.914Z,3.13
2022-07-30T18:58:20.390Z,3.25
2022-07-30T19:00:48.897Z,5.13
2022-07-30T19:03:22.672Z,3.70
2022-07-30T19:05:51.670Z,3.50
2022-07-30T19:08:20.164Z,3.47
2022-07-30T19:10:48.763Z,3.40
2022-07-30T19:13:18.578Z,3.35
2022-07-30T19:15:47.028Z,9.75
2022-07-30T19:18:15.448Z,49.78
2022-07-30T19:20:44.521Z,12.90
2022-07-30T19:23:13.776Z,10.32
2022-07-30T19:25:42.296Z,12.27
2022-07-30T19:28:13.503Z,10.73
2022-07-30T19:30:43.483Z,8.60
2022-07-30T19:33:15.494Z,8.23
2022-07-30T19:35:44.332Z,8.23
2022-07-30T19:38:21.995Z,8.77
2022-07-30T19:41:01.240Z,6.65
2022-07-30T19:43:33.559Z,5.95
2022-07-30T19:46:03.673Z,6.72
2022-07-30T19:48:32.510Z,7.22
2022-07-30T19:51:01.384Z,5.75
2022-07-30T19:53:31.605Z,5.65
2022-07-30T19:56:08.227Z,6.90
2022-07-30T19:58:40.046Z,6.47
2022-07-30T20:01:12.326Z,5.47
2022-07-30T20:03:41.087Z,8.50
2022-07-30T20:06:14.458Z,6.15
2022-07-30T20:08:44.758Z,5.60
2022-07-30T20:11:20.764Z,6.40
2022-07-30T20:14:02.116Z,7.10
2022-07-30T20:16:31.948Z,6.25
2022-07-30T20:19:00.400Z,6.13
2022-07-30T20:21:56.101Z,7.93
2022-07-30T20:24:20.106Z,6.68
2022-07-30T20:26:49.481Z,6.93
2022-07-30T20:29:19.376Z,6.35
2022-07-30T20:31:50.491Z,7.28
2022-07-30T20:34:23.325Z,6.72
2022-07-30T20:36:52.095Z,8.13
2022-07-30T20:39:23.679Z,6.65
2022-07-30T20:42:07.620Z,7.35
2022-07-30T20:44:37.548Z,8.40
2022-07-30T20:47:08.115Z,7.32
2022-07-30T20:49:37.243Z,7.65
2022-07-30T20:52:06.970Z,7.53
2022-07-30T20:54:35.613Z,7.22
2022-07-30T20:57:06.434Z,7.93
2022-07-30T20:59:35.643Z,6.97
2022-07-30T21:02:04.577Z,7.93
2022-07-30T21:04:36.220Z,8.50
2022-07-30T21:07:05.192Z,8.38
2022-07-30T21:09:52.250Z,8.38
2022-07-30T21:12:33.005Z,7.13
2022-07-30T21:15:01.708Z,7.18
2022-07-30T21:17:30.152Z,7.40
2022-07-30T21:20:00.125Z,8.32
2022-07-30T21:22:29.630Z,6.85
2022-07-30T21:24:58.304Z,7.05
2022-07-30T21:27:30.056Z,7.00
2022-07-30T21:29:58.624Z,7.30
2022-07-30T21:32:28.434Z,7.50
2022-07-30T21:34:56.882Z,7.20
2022-07-30T21:37:27.114Z,7.22
2022-07-30T21:40:06.957Z,8.02
2022-07-30T21:42:37.306Z,7.68
2022-07-30T21:45:17.322Z,7.65
2022-07-30T21:47:47.605Z,7.85
2022-07-30T21:50:16.692Z,7.70
2022-07-30T21:52:46.651Z,7.38
2022-07-30T21:55:15.211Z,7.75
2022-07-30T21:57:43.715Z,7.82
2022-07-30T22:00:18.807Z,8.15
2022-07-30T22:02:53.124Z,7.57
2022-07-30T22:05:38.297Z,8.55
2022-07-30T22:08:09.574Z,7.97
2022-07-30T22:10:39.159Z,8.13
2022-07-30T22:13:10.295Z,8.13
2022-07-30T22:15:39.030Z,10.02
2022-07-30T22:18:08.689Z,8.52
2022-07-30T22:20:37.883Z,7.68
2022-07-30T22:23:09.203Z,7.07
2022-07-30T22:25:39.619Z,9.38
2022-07-30T22:28:12.738Z,8.43
2022-07-30T22:30:42.006Z,7.47
2022-07-30T22:33:13.214Z,7.28
2022-07-30T22:35:46.672Z,6.40
2022-07-30T22:38:19.874Z,6.32
2022-07-30T22:40:49.541Z,6.80
2022-07-30T22:43:18.025Z,6.85
2022-07-30T22:45:48.377Z,5.80
2022-07-30T22:48:20.742Z,5.80
2022-07-30T22:50:56.805Z,5.95
2022-07-30T22:54:10.824Z,5.65
2022-07-30T22:56:20.256Z,5.60
2022-07-30T22:58:53.107Z,5.35
2022-07-30T23:01:21.576Z,5.25
2022-07-30T23:03:51.431Z,5.00
2022-07-30T23:06:20.658Z,5.38
2022-07-30T23:08:51.424Z,4.72
2022-07-30T23:11:21.580Z,5.43
2022-07-30T23:13:53.844Z,4.78
2022-07-30T23:16:22.764Z,4.80
2022-07-30T23:18:51.300Z,5.03
2022-07-30T23:21:19.763Z,4.25
2022-07-30T23:23:48.349Z,4.45
2022-07-30T23:26:18.195Z,4.35
2022-07-30T23:28:47.346Z,4.10
2022-07-30T23:31:15.801Z,3.35
2022-07-30T23:33:44.258Z,3.50
2022-07-30T23:36:12.650Z,3.50
2022-07-30T23:38:41.085Z,3.60
2022-07-30T23:41:09.503Z,3.40
2022-07-30T23:43:39.836Z,3.58
2022-07-30T23:46:11.012Z,3.42
2022-07-30T23:48:40.139Z,5.97
2022-07-30T23:51:08.553Z,3.60
2022-07-30T23:53:36.983Z,3.33
2022-07-30T23:56:05.925Z,2.80
2022-07-30T23:58:34.366Z,7.10
